createdAt,value
2018-08-12T00:00:23.138Z,101554.34
2018-08-12T00:02:52.411Z,101552.55
2018-08-12T00:05:21.576Z,101555.27
2018-08-12T00:07:50.711Z,101546.61
2018-08-12T00:10:19.701Z,101544.40
2018-08-12T00:12:48.621Z,101537.34
2018-08-12T00:15:19.943Z,101538.15
2018-08-12T00:17:48.889Z,101537.50
2018-08-12T00:20:19.427Z,101541.19
2018-08-12T00:22:48.917Z,101529.03
2018-08-12T00:25:19.596Z,101526.63
2018-08-12T00:27:48.483Z,101529.69
2018-08-12T00:30:18.506Z,101529.74
2018-08-12T00:32:47.562Z,101528.78
2018-08-12T00:35:17.535Z,101523.98
2018-08-12T00:37:46.533Z,101520.56
2018-08-12T00:40:16.436Z,101522.20
2018-08-12T00:42:46.016Z,101526.26
2018-08-12T00:45:17.026Z,101523.83
2018-08-12T00:47:46.335Z,101521.61
2018-08-12T00:50:16.121Z,101519.18
2018-08-12T00:52:45.414Z,101520.16
2018-08-12T00:55:15.615Z,101519.52
2018-08-12T00:57:45.334Z,101512.14
2018-08-12T01:03:08.167Z,101508.53
2018-08-12T01:05:36.996Z,101512.03
2018-08-12T01:08:05.924Z,101510.34
2018-08-12T01:10:34.897Z,101500.54
2018-08-12T01:13:03.784Z,101507.98
2018-08-12T01:15:32.654Z,101513.88
2018-08-12T01:18:01.779Z,101512.77
2018-08-12T01:20:30.710Z,101501.27
2018-08-12T01:22:59.581Z,101505.48
2018-08-12T01:25:28.688Z,101506.14
2018-08-12T01:27:57.592Z,101505.69
2018-08-12T01:30:26.558Z,101501.70
2018-08-12T01:32:55.591Z,101498.44
2018-08-12T01:35:24.421Z,101499.72
2018-08-12T01:37:53.368Z,101497.44
2018-08-12T01:40:22.321Z,101501.87
2018-08-12T01:42:51.180Z,101491.13
2018-08-12T01:45:21.064Z,101494.31
2018-08-12T01:47:50.661Z,101497.02
2018-08-12T01:50:20.373Z,101502.67
2018-08-12T01:52:49.247Z,101502.11
2018-08-12T01:55:18.309Z,101512.07
2018-08-12T01:57:47.158Z,101510.96
2018-08-12T02:00:18.647Z,101504.06
2018-08-12T02:02:48.105Z,101497.22
2018-08-12T02:05:17.580Z,101483.91
2018-08-12T02:07:46.535Z,101485.36
2018-08-12T02:10:15.509Z,101482.38
2018-08-12T02:12:44.467Z,101483.00
2018-08-12T02:15:13.654Z,101488.41
2018-08-12T02:17:42.918Z,101489.87
2018-08-12T02:20:12.915Z,101492.92
2018-08-12T02:22:42.538Z,101491.26
2018-08-12T02:25:12.398Z,101494.59
2018-08-12T02:27:41.775Z,101495.31
2018-08-12T02:30:12.122Z,101493.38
2018-08-12T02:32:41.781Z,101493.19
2018-08-12T02:35:11.039Z,101487.64
2018-08-12T02:37:40.368Z,101488.76
2018-08-12T02:40:10.041Z,101478.11
2018-08-12T02:42:39.096Z,101478.59
2018-08-12T02:45:10.404Z,101485.52
2018-08-12T02:47:39.426Z,101480.31
2018-08-12T02:50:08.297Z,101484.24
2018-08-12T02:52:37.822Z,101482.06
2018-08-12T02:55:08.358Z,101477.10
2018-08-12T02:57:37.321Z,101481.91
2018-08-12T03:00:07.068Z,101481.83
2018-08-12T03:02:35.971Z,101482.85
2018-08-12T03:05:05.150Z,101475.70
2018-08-12T03:07:34.521Z,101475.46
2018-08-12T03:10:03.529Z,101471.80
2018-08-12T03:12:32.516Z,101466.87
2018-08-12T03:15:01.495Z,101464.03
2018-08-12T03:17:30.461Z,101456.02
2018-08-12T03:19:59.316Z,101463.38
2018-08-12T03:22:28.213Z,101454.83
2018-08-12T03:24:57.236Z,101461.80
2018-08-12T03:27:26.203Z,101462.34
2018-08-12T03:29:55.226Z,101459.36
2018-08-12T03:32:24.094Z,101450.36
2018-08-12T03:34:53.004Z,101455.77
2018-08-12T03:37:22.729Z,101454.95
2018-08-12T03:39:51.706Z,101459.25
2018-08-12T03:42:20.566Z,101457.94
2018-08-12T03:44:49.477Z,101452.29
2018-08-12T03:47:18.382Z,101457.17
2018-08-12T03:49:47.226Z,101453.88
2018-08-12T03:52:16.178Z,101456.30
2018-08-12T03:54:45.097Z,101451.60
2018-08-12T03:57:13.943Z,101454.84
2018-08-12T03:59:42.839Z,101454.12
2018-08-12T04:02:11.832Z,101455.06
2018-08-12T04:04:40.665Z,101456.86
2018-08-12T04:07:09.561Z,101457.70
2018-08-12T04:09:38.520Z,101454.13
2018-08-12T04:12:07.389Z,101455.67
2018-08-12T04:14:36.464Z,101449.11
2018-08-12T04:17:05.387Z,101455.88
2018-08-12T04:19:34.270Z,101452.34
2018-08-12T04:22:03.148Z,101449.95
2018-08-12T04:24:32.099Z,101453.61
2018-08-12T04:27:00.939Z,101450.14
2018-08-12T04:29:29.841Z,101452.62
2018-08-12T04:31:58.766Z,101445.08
2018-08-12T04:34:27.680Z,101448.72
2018-08-12T04:36:56.564Z,101452.77
2018-08-12T04:39:25.529Z,101449.95
2018-08-12T04:41:54.846Z,101446.02
2018-08-12T04:44:23.802Z,101444.27
2018-08-12T04:46:52.689Z,101442.00
2018-08-12T04:49:21.637Z,101442.63
2018-08-12T04:51:51.007Z,101442.08
2018-08-12T04:54:19.979Z,101440.02
2018-08-12T04:56:48.846Z,101437.11
2018-08-12T04:59:17.767Z,101432.61
2018-08-12T05:01:46.606Z,101425.73
2018-08-12T05:04:15.498Z,101431.19
2018-08-12T05:06:44.423Z,101432.27
2018-08-12T05:09:13.269Z,101426.41
2018-08-12T05:11:42.155Z,101422.16
2018-08-12T05:14:11.136Z,101427.69
2018-08-12T05:16:40.060Z,101423.02
2018-08-12T05:19:08.882Z,101417.58
2018-08-12T05:21:37.814Z,101420.19
2018-08-12T05:24:06.905Z,101414.81
2018-08-12T05:26:35.947Z,101412.63
2018-08-12T05:29:04.908Z,101412.42
2018-08-12T05:31:33.887Z,101406.03
2018-08-12T05:34:02.765Z,101409.63
2018-08-12T05:36:31.955Z,101415.08
2018-08-12T05:39:00.933Z,101409.36
2018-08-12T05:41:29.857Z,101403.66
2018-08-12T05:43:58.782Z,101405.54
2018-08-12T05:46:27.736Z,101403.94
2018-08-12T05:48:56.594Z,101391.48
2018-08-12T05:51:32.334Z,101396.98
2018-08-12T05:54:01.310Z,101386.67
2018-08-12T05:56:30.162Z,101385.94
2018-08-12T05:58:59.090Z,101382.23
2018-08-12T06:01:28.836Z,101388.55
2018-08-12T06:03:57.823Z,101386.54
2018-08-12T06:06:26.737Z,101386.59
2018-08-12T06:08:55.739Z,101388.02
2018-08-12T06:11:24.580Z,101383.22
2018-08-12T06:13:53.584Z,101380.62
2018-08-12T06:16:22.463Z,101379.15
2018-08-12T06:18:51.409Z,101378.84
2018-08-12T06:21:20.277Z,101378.82
2018-08-12T06:23:49.121Z,101368.34
2018-08-12T06:26:18.085Z,101365.17
2018-08-12T06:28:47.119Z,101366.30
2018-08-12T06:31:15.971Z,101365.86
2018-08-12T06:33:45.143Z,101370.04
2018-08-12T06:36:14.038Z,101365.37
2018-08-12T06:38:43.442Z,101371.45
2018-08-12T06:41:12.735Z,101375.27
2018-08-12T06:43:41.566Z,101368.69
2018-08-12T06:46:10.535Z,101367.94
2018-08-12T06:48:39.436Z,101369.69
2018-08-12T06:51:08.414Z,101376.18
2018-08-12T06:53:37.321Z,101363.73
2018-08-12T06:56:06.306Z,101365.95
2018-08-12T06:58:35.204Z,101367.05
2018-08-12T07:01:04.183Z,101368.96
2018-08-12T07:03:33.155Z,101368.52
2018-08-12T07:06:02.029Z,101369.86
2018-08-12T07:08:31.021Z,101365.80
2018-08-12T07:10:59.921Z,101369.37
2018-08-12T07:13:28.822Z,101357.18
2018-08-12T07:15:57.833Z,101363.72
2018-08-12T07:18:26.661Z,101358.91
2018-08-12T07:20:55.576Z,101360.84
2018-08-12T07:23:24.617Z,101352.42
2018-08-12T07:25:53.473Z,101359.78
2018-08-12T07:28:22.376Z,101352.27
2018-08-12T07:30:51.281Z,101346.58
2018-08-12T07:33:20.158Z,101346.04
2018-08-12T07:35:49.084Z,101349.05
2018-08-12T07:38:18.038Z,101351.56
2018-08-12T07:40:47.127Z,101346.41
2018-08-12T07:43:16.033Z,101346.39
2018-08-12T07:45:44.894Z,101349.14
2018-08-12T07:48:13.800Z,101337.98
2018-08-12T07:50:42.713Z,101342.89
2018-08-12T07:53:11.523Z,101332.30
2018-08-12T07:55:40.548Z,101330.67
2018-08-12T07:58:09.387Z,101326.06
2018-08-12T08:00:38.280Z,101326.86
2018-08-12T08:03:07.223Z,101323.34
2018-08-12T08:05:36.149Z,101325.24
2018-08-12T08:08:05.123Z,101322.79
2018-08-12T08:10:34.103Z,101320.91
2018-08-12T08:13:03.133Z,101316.80
2018-08-12T08:15:32.025Z,101322.48
2018-08-12T08:18:00.942Z,101325.21
2018-08-12T08:20:29.952Z,101317.33
2018-08-12T08:22:58.896Z,101311.59
2018-08-12T08:25:27.873Z,101316.52
2018-08-12T08:27:56.701Z,101319.27
2018-08-12T08:30:25.713Z,101315.67
2018-08-12T08:32:54.620Z,101315.94
2018-08-12T08:35:23.561Z,101319.74
2018-08-12T08:37:52.481Z,101313.67
2018-08-12T08:40:21.377Z,101312.14
2018-08-12T08:42:50.343Z,101309.19
2018-08-12T08:45:20.919Z,101308.06
2018-08-12T08:47:52.208Z,101307.05
2018-08-12T08:50:21.990Z,101308.20
2018-08-12T08:52:50.891Z,101298.91
2018-08-12T08:55:20.104Z,101294.48
2018-08-12T08:57:49.027Z,101301.00
2018-08-12T09:00:19.578Z,101297.47
2018-08-12T09:02:49.978Z,101302.95
2018-08-12T09:05:19.274Z,101300.41
2018-08-12T09:07:48.441Z,101291.95
2018-08-12T09:10:18.311Z,101293.02
2018-08-12T09:12:47.266Z,101281.79
2018-08-12T09:15:17.811Z,101281.91
2018-08-12T09:17:47.439Z,101281.36
2018-08-12T09:20:18.866Z,101273.67
2018-08-12T09:22:47.884Z,101273.13
2018-08-12T09:25:17.101Z,101267.47
2018-08-12T09:27:45.981Z,101257.65
2018-08-12T09:30:17.017Z,101255.88
2018-08-12T09:32:46.361Z,101255.62
2018-08-12T09:35:15.215Z,101261.17
2018-08-12T09:37:44.211Z,101264.34
2018-08-12T09:40:14.456Z,101257.24
2018-08-12T09:42:44.310Z,101258.14
2018-08-12T09:45:16.108Z,101256.71
2018-08-12T09:47:45.097Z,101251.02
2018-08-12T09:50:15.424Z,101254.55
2018-08-12T09:52:44.596Z,101258.29
2018-08-12T09:55:14.185Z,101252.79
2018-08-12T09:57:43.170Z,101250.02
2018-08-12T10:00:19.904Z,101239.38
2018-08-12T10:02:49.505Z,101248.58
2018-08-12T10:05:18.567Z,101236.82
2018-08-12T10:07:47.685Z,101238.64
2018-08-12T10:10:17.041Z,101226.08
2018-08-12T10:12:46.020Z,101217.78
2018-08-12T10:15:15.723Z,101221.00
2018-08-12T10:17:46.619Z,101210.04
2018-08-12T10:20:15.495Z,101207.97
2018-08-12T10:22:44.405Z,101213.77
2018-08-12T10:25:13.355Z,101207.34
2018-08-12T10:27:42.214Z,101212.75
2018-08-12T10:30:12.720Z,101213.09
2018-08-12T10:32:41.552Z,101201.67
2018-08-12T10:35:11.936Z,101200.58
2018-08-12T10:37:41.358Z,101196.41
2018-08-12T10:40:13.362Z,101181.30
2018-08-12T10:42:42.332Z,101184.38
2018-08-12T10:45:11.952Z,101180.15
2018-08-12T10:47:41.070Z,101179.25
2018-08-12T10:50:12.657Z,101179.95
2018-08-12T10:52:42.674Z,101173.82
2018-08-12T10:55:12.606Z,101184.94
2018-08-12T10:57:41.623Z,101179.52
2018-08-12T11:00:18.298Z,101179.27
2018-08-12T11:02:47.808Z,101174.95
2018-08-12T11:05:17.236Z,101174.29
2018-08-12T11:07:48.190Z,101164.77
2018-08-12T11:10:17.099Z,101163.54
2018-08-12T11:12:46.105Z,101160.19
2018-08-12T11:15:15.379Z,101163.99
2018-08-12T11:17:44.552Z,101165.20
2018-08-12T11:20:13.382Z,101154.44
2018-08-12T11:22:42.246Z,101165.92
2018-08-12T11:25:16.627Z,101157.67
2018-08-12T11:27:46.391Z,101149.94
2018-08-12T11:30:17.126Z,101150.83
2018-08-12T11:32:46.025Z,101148.64
2018-08-12T11:35:16.325Z,101143.81
2018-08-12T11:37:45.705Z,101134.74
2018-08-12T11:40:15.489Z,101128.20
2018-08-12T11:42:44.447Z,101123.54
2018-08-12T11:45:18.192Z,101122.06
2018-08-12T11:47:47.994Z,101121.66
2018-08-12T11:50:17.510Z,101118.47
2018-08-12T11:52:47.046Z,101118.58
2018-08-12T11:55:18.315Z,101117.12
2018-08-12T11:57:55.400Z,101119.15
2018-08-12T12:00:24.312Z,101112.30
2018-08-12T12:02:55.656Z,101109.36
2018-08-12T12:05:25.203Z,101101.87
2018-08-12T12:07:54.079Z,101105.02
2018-08-12T12:10:23.591Z,101106.77
2018-08-12T12:12:53.964Z,101101.35
2018-08-12T12:15:22.879Z,101097.17
2018-08-12T12:17:51.929Z,101091.28
2018-08-12T12:20:21.025Z,101095.50
2018-08-12T12:22:49.832Z,101095.91
2018-08-12T12:25:20.169Z,101090.06
2018-08-12T12:27:49.135Z,101091.38
2018-08-12T12:30:19.568Z,101092.52
2018-08-12T12:32:49.607Z,101075.59
2018-08-12T12:35:18.616Z,101078.85
2018-08-12T12:37:47.666Z,101070.45
2018-08-12T12:40:17.801Z,101066.19
2018-08-12T12:42:47.200Z,101062.19
2018-08-12T12:45:16.514Z,101060.09
2018-08-12T12:47:45.716Z,101057.36
2018-08-12T12:50:16.712Z,101067.74
2018-08-12T12:52:46.271Z,101064.27
2018-08-12T12:55:15.357Z,101064.93
2018-08-12T12:57:44.476Z,101058.38
2018-08-12T13:00:14.950Z,101058.66
2018-08-12T13:02:44.126Z,101057.02
2018-08-12T13:05:14.653Z,101055.05
2018-08-12T13:07:47.037Z,101048.30
2018-08-12T13:10:16.615Z,101046.98
2018-08-12T13:12:45.583Z,101047.20
2018-08-12T13:15:15.271Z,101044.48
2018-08-12T13:17:44.188Z,101037.86
2018-08-12T13:20:15.485Z,101038.84
2018-08-12T13:22:45.497Z,101034.78
2018-08-12T13:25:16.141Z,101025.64
2018-08-12T13:27:45.405Z,101027.08
2018-08-12T13:30:15.345Z,101023.58
2018-08-12T13:32:45.377Z,101018.48
2018-08-12T13:35:14.655Z,101015.83
2018-08-12T13:37:43.899Z,101018.10
2018-08-12T13:40:14.364Z,101018.31
2018-08-12T13:42:44.938Z,101012.83
2018-08-12T13:45:20.485Z,101013.30
2018-08-12T13:47:51.649Z,101011.56
2018-08-12T13:50:22.291Z,101008.59
2018-08-12T13:52:52.079Z,101014.77
2018-08-12T13:55:21.847Z,101007.91
2018-08-12T13:57:52.653Z,101005.02
2018-08-12T14:00:24.397Z,101003.91
2018-08-12T14:02:53.591Z,100996.16
2018-08-12T14:05:23.051Z,100998.93
2018-08-12T14:07:52.813Z,100995.41
2018-08-12T14:10:29.067Z,100994.30
2018-08-12T14:12:59.533Z,100992.94
2018-08-12T14:15:28.533Z,100986.81
2018-08-12T14:17:57.501Z,100985.02
2018-08-12T14:20:26.417Z,100980.19
2018-08-12T14:22:58.776Z,100973.00
2018-08-12T14:25:27.733Z,100971.83
2018-08-12T14:27:56.703Z,100970.13
2018-08-12T14:30:25.537Z,100970.73
2018-08-12T14:33:01.122Z,100960.74
2018-08-12T14:35:30.161Z,100962.83
2018-08-12T14:37:59.074Z,100962.97
2018-08-12T14:40:28.032Z,100957.56
2018-08-12T14:42:56.995Z,100960.03
2018-08-12T14:45:26.093Z,100953.63
2018-08-12T14:47:55.224Z,100950.89
2018-08-12T14:50:29.397Z,100940.53
2018-08-12T14:52:58.561Z,100930.91
2018-08-12T14:55:27.794Z,100925.15
2018-08-12T14:57:56.909Z,100917.50
2018-08-12T15:00:26.272Z,100916.95
2018-08-12T15:02:55.600Z,100924.87
2018-08-12T15:05:24.704Z,100908.20
2018-08-12T15:07:53.970Z,100907.59
2018-08-12T15:10:22.979Z,100902.66
2018-08-12T15:12:51.922Z,100912.30
2018-08-12T15:15:21.535Z,100905.98
2018-08-12T15:17:50.865Z,100907.69
2018-08-12T15:20:20.100Z,100901.84
2018-08-12T15:22:49.272Z,100897.33
2018-08-12T15:25:25.812Z,100880.88
2018-08-12T15:28:01.918Z,100882.27
2018-08-12T15:30:30.804Z,100878.42
2018-08-12T15:32:59.786Z,100880.55
2018-08-12T15:35:28.733Z,100877.02
2018-08-12T15:37:57.593Z,100875.30
2018-08-12T15:40:26.785Z,100880.92
2018-08-12T15:42:55.767Z,100877.79
2018-08-12T15:45:24.807Z,100871.63
2018-08-12T15:47:53.793Z,100866.91
2018-08-12T15:50:22.687Z,100860.77
2018-08-12T15:52:53.606Z,100863.80
2018-08-12T15:55:22.588Z,100866.81
2018-08-12T15:57:51.586Z,100864.05
2018-08-12T16:00:21.761Z,100861.86
2018-08-12T16:02:50.756Z,100862.05
2018-08-12T16:05:19.754Z,100859.36
2018-08-12T16:07:51.575Z,100851.80
2018-08-12T16:10:22.342Z,100859.07
2018-08-12T16:12:54.534Z,100855.90
2018-08-12T16:15:23.920Z,100857.37
2018-08-12T16:17:53.658Z,100848.95
2018-08-12T16:20:22.994Z,100842.25
2018-08-12T16:22:52.267Z,100835.61
2018-08-12T16:25:22.387Z,100834.95
2018-08-12T16:27:51.721Z,100835.80
2018-08-12T16:30:20.999Z,100827.03
2018-08-12T16:32:50.186Z,100830.09
2018-08-12T16:35:21.472Z,100822.49
2018-08-12T16:37:50.632Z,100822.02
2018-08-12T16:40:20.772Z,100822.78
2018-08-12T16:42:50.048Z,100817.18
2018-08-12T16:45:20.205Z,100816.13
2018-08-12T16:47:49.226Z,100814.39
2018-08-12T16:50:18.265Z,100811.24
2018-08-12T16:52:47.191Z,100809.45
2018-08-12T16:55:17.304Z,100812.69
2018-08-12T16:57:46.831Z,100804.36
2018-08-12T17:00:20.467Z,100802.30
2018-08-12T17:02:51.386Z,100796.67
2018-08-12T17:05:21.562Z,100790.80
2018-08-12T17:07:51.067Z,100793.05
2018-08-12T17:10:20.983Z,100789.52
2018-08-12T17:12:49.851Z,100782.72
2018-08-12T17:15:21.013Z,100787.70
2018-08-12T17:17:50.474Z,100786.74
2018-08-12T17:20:26.171Z,100783.48
2018-08-12T17:22:56.733Z,100780.70
2018-08-12T17:25:25.693Z,100777.49
2018-08-12T17:27:54.622Z,100778.31
2018-08-12T17:30:23.541Z,100772.14
2018-08-12T17:32:52.606Z,100772.81
2018-08-12T17:35:21.552Z,100770.66
2018-08-12T17:37:50.477Z,100768.64
2018-08-12T17:40:19.350Z,100765.14
2018-08-12T17:42:48.230Z,100759.82
2018-08-12T17:45:17.193Z,100755.93
2018-08-12T17:47:46.427Z,100753.77
2018-08-12T17:50:16.767Z,100744.70
2018-08-12T17:52:45.748Z,100743.53
2018-08-12T17:55:14.630Z,100737.89
2018-08-12T17:57:44.451Z,100740.34
2018-08-12T18:00:14.973Z,100739.44
2018-08-12T18:02:43.944Z,100737.84
2018-08-12T18:05:12.830Z,100732.31
2018-08-12T18:07:42.250Z,100727.53
2018-08-12T18:10:11.164Z,100735.69
2018-08-12T18:12:40.159Z,100736.98
2018-08-12T18:15:10.801Z,100729.00
2018-08-12T18:17:40.147Z,100728.19
2018-08-12T18:20:09.350Z,100730.61
2018-08-12T18:22:38.417Z,100726.84
2018-08-12T18:25:09.119Z,100729.70
2018-08-12T18:27:38.144Z,100729.84
2018-08-12T18:30:08.881Z,100729.00
2018-08-12T18:32:37.969Z,100723.27
2018-08-12T18:35:08.253Z,100727.81
2018-08-12T18:37:37.305Z,100726.19
2018-08-12T18:40:07.594Z,100726.41
2018-08-12T18:42:36.770Z,100723.19
2018-08-12T18:45:06.000Z,100720.93
2018-08-12T18:47:35.298Z,100713.94
2018-08-12T18:50:05.376Z,100715.63
2018-08-12T18:52:34.630Z,100718.67
2018-08-12T18:55:03.622Z,100721.84
2018-08-12T18:57:32.500Z,100716.43
2018-08-12T19:00:01.432Z,100721.48
2018-08-12T19:02:30.469Z,100717.45
2018-08-12T19:04:59.342Z,100721.17
2018-08-12T19:07:29.159Z,100724.97
2018-08-12T19:09:58.223Z,100720.90
2018-08-12T19:12:27.275Z,100723.41
2018-08-12T19:14:58.205Z,100722.94
2018-08-12T19:17:27.541Z,100725.68
2018-08-12T19:19:57.072Z,100721.57
2018-08-12T19:22:28.240Z,100720.04
2018-08-12T19:25:00.700Z,100713.85
2018-08-12T19:27:31.981Z,100714.72
2018-08-12T19:30:01.028Z,100715.19
2018-08-12T19:32:30.065Z,100711.23
2018-08-12T19:34:59.475Z,100712.36
2018-08-12T19:37:28.409Z,100707.87
2018-08-12T19:39:57.318Z,100706.26
2018-08-12T19:42:26.269Z,100707.94
2018-08-12T19:44:55.171Z,100709.22
2018-08-12T19:47:24.826Z,100703.95
2018-08-12T19:49:53.777Z,100700.77
2018-08-12T19:52:22.754Z,100696.50
2018-08-12T19:54:51.711Z,100701.52
2018-08-12T19:57:20.639Z,100698.18
2018-08-12T19:59:49.586Z,100697.48
2018-08-12T20:02:18.654Z,100695.91
2018-08-12T20:04:47.622Z,100688.32
2018-08-12T20:07:16.505Z,100689.03
2018-08-12T20:09:45.424Z,100692.06
2018-08-12T20:12:14.749Z,100683.47
2018-08-12T20:14:43.448Z,100682.07
2018-08-12T20:17:12.421Z,100676.20
2018-08-12T20:19:41.438Z,100675.59
2018-08-12T20:22:13.921Z,100671.92
2018-08-12T20:24:43.237Z,100670.11
2018-08-12T20:27:12.727Z,100673.00
2018-08-12T20:29:41.762Z,100669.50
2018-08-12T20:32:10.915Z,100659.98
2018-08-12T20:34:40.018Z,100662.39
2018-08-12T20:37:09.792Z,100665.11
2018-08-12T20:39:38.745Z,100666.00
2018-08-12T20:42:08.356Z,100661.05
2018-08-12T20:44:39.263Z,100655.81
2018-08-12T20:47:08.283Z,100656.94
2018-08-12T20:49:38.180Z,100665.45
2018-08-12T20:52:07.032Z,100666.55
2018-08-12T20:54:52.598Z,100657.77
2018-08-12T20:57:29.444Z,100654.04
2018-08-12T21:00:00.762Z,100656.47
2018-08-12T21:02:29.648Z,100654.80
2018-08-12T21:04:58.718Z,100648.81
2018-08-12T21:07:28.633Z,100648.02
2018-08-12T21:09:59.948Z,100653.73
2018-08-12T21:12:30.293Z,100650.28
2018-08-12T21:14:59.302Z,100648.98
2018-08-12T21:17:28.250Z,100645.72
2018-08-12T21:19:57.277Z,100642.92
2018-08-12T21:22:26.170Z,100638.20
2018-08-12T21:24:55.158Z,100641.25
2018-08-12T21:27:24.161Z,100641.48
2018-08-12T21:29:53.090Z,100636.70
2018-08-12T21:32:22.060Z,100631.73
2018-08-12T21:34:51.073Z,100636.90
2018-08-12T21:37:20.377Z,100632.92
2018-08-12T21:39:49.544Z,100631.69
2018-08-12T21:42:18.473Z,100632.31
2018-08-12T21:44:47.396Z,100628.28
2018-08-12T21:47:16.487Z,100625.42
2018-08-12T21:49:45.690Z,100625.98
2018-08-12T21:52:14.834Z,100631.14
2018-08-12T21:54:43.814Z,100623.34
2018-08-12T21:57:12.820Z,100613.84
2018-08-12T21:59:41.983Z,100620.70
2018-08-12T22:02:10.880Z,100615.39
2018-08-12T22:04:40.091Z,100609.42
2018-08-12T22:07:09.048Z,100603.22
2018-08-12T22:09:38.234Z,100615.84
2018-08-12T22:12:07.156Z,100610.07
2018-08-12T22:14:36.046Z,100613.52
2018-08-12T22:17:04.899Z,100605.66
2018-08-12T22:19:33.865Z,100607.09
2018-08-12T22:22:02.725Z,100606.52
2018-08-12T22:24:33.426Z,100603.50
2018-08-12T22:27:02.696Z,100608.38
2018-08-12T22:29:33.591Z,100604.34
2018-08-12T22:32:02.500Z,100599.95
2018-08-12T22:34:34.271Z,100601.00
2018-08-12T22:37:03.150Z,100599.55
2018-08-12T22:39:32.020Z,100601.98
2018-08-12T22:42:01.139Z,100599.13
2018-08-12T22:44:30.108Z,100594.27
2018-08-12T22:46:59.616Z,100591.60
2018-08-12T22:49:28.609Z,100592.54
2018-08-12T22:51:57.656Z,100588.69
2018-08-12T22:54:26.519Z,100595.56
2018-08-12T22:56:55.471Z,100588.44
2018-08-12T22:59:24.392Z,100591.28
2018-08-12T23:01:53.301Z,100591.59
2018-08-12T23:04:22.325Z,100585.02
2018-08-12T23:06:51.316Z,100587.93
2018-08-12T23:09:20.266Z,100589.71
2018-08-12T23:11:49.180Z,100579.87
2018-08-12T23:14:18.173Z,100577.34
2018-08-12T23:16:56.807Z,100576.52
2018-08-12T23:19:25.714Z,100581.23
2018-08-12T23:21:54.651Z,100575.05
2018-08-12T23:24:23.556Z,100568.71
2018-08-12T23:26:52.468Z,100563.11
2018-08-12T23:29:21.300Z,100572.17
2018-08-12T23:31:50.286Z,100565.03
2018-08-12T23:34:19.176Z,100563.30
2018-08-12T23:36:48.027Z,100566.72
2018-08-12T23:39:17.018Z,100566.17
2018-08-12T23:41:46.003Z,100565.38
2018-08-12T23:44:14.857Z,100568.94
2018-08-12T23:46:43.860Z,100563.66
2018-08-12T23:49:12.681Z,100566.98
2018-08-12T23:51:41.637Z,100555.36
2018-08-12T23:54:10.625Z,100552.14
2018-08-12T23:56:39.517Z,100551.25
2018-08-12T23:59:08.330Z,100550.16
